Time;durP1;ratioP1;P1;durP2;ratioP2;P2;SDS_P1;SDS_P2;PMS_P1;PMS_P2;Temp;Humidity;BMP_temperature;BMP_pressure;BME280_temperature;BME280_humidity;BME280_pressure;Samples;Min_cycle;Max_cycle;Signal;HPM_P1;HPM_P2
2022/03/07 00:01:07;;;;;;;30.27;17.70;;;;;;;;;;5044452;28;20099;-80
2022/03/07 00:03:33;;;;;;;31.75;17.08;;;;;;;;;;5044956;28;20037;-79
2022/03/07 00:05:59;;;;;;;26.98;15.60;;;;;;;;;;5044783;28;20043;-80
2022/03/07 00:08:25;;;;;;;22.83;14.60;;;;;;;;;;5027233;28;20149;-79
2022/03/07 00:10:51;;;;;;;30.00;15.50;;;;;;;;;;5025094;28;20068;-79
2022/03/07 00:13:17;;;;;;;27.60;14.52;;;;;;;;;;5048649;28;20064;-80
2022/03/07 00:15:43;;;;;;;25.63;14.68;;;;;;;;;;5043260;28;20088;-80
2022/03/07 00:18:09;;;;;;;24.27;14.95;;;;;;;;;;5041753;28;20116;-80
2022/03/07 00:20:35;;;;;;;22.85;14.82;;;;;;;;;;5042424;28;20049;-79
2022/03/07 00:23:01;;;;;;;25.70;15.15;;;;;;;;;;5025083;28;20030;-79
2022/03/07 00:25:27;;;;;;;23.98;14.93;;;;;;;;;;5042317;28;20047;-80
2022/03/07 00:27:53;;;;;;;24.30;15.18;;;;;;;;;;5025201;28;20353;-81
2022/03/07 00:30:20;;;;;;;25.80;15.25;;;;;;;;;;5024831;28;20041;-79
2022/03/07 00:32:46;;;;;;;23.90;13.57;;;;;;;;;;5041796;28;20095;-80
2022/03/07 00:35:12;;;;;;;23.30;14.98;;;;;;;;;;5024684;28;20044;-80
2022/03/07 00:37:38;;;;;;;25.02;14.90;;;;;;;;;;5025565;28;20433;-79
2022/03/07 00:40:06;;;;;;;27.27;14.98;;;;;;;;;;5041788;28;20048;-80
2022/03/07 00:42:32;;;;;;;21.45;14.07;;;;;;;;;;5042198;28;20037;-79
2022/03/07 00:44:58;;;;;;;24.88;14.00;;;;;;;;;;5041089;28;20103;-80
2022/03/07 00:47:25;;;;;;;25.05;13.63;;;;;;;;;;5041856;28;20042;-80
2022/03/07 00:49:51;;;;;;;22.20;13.27;;;;;;;;;;5025060;28;20380;-81
2022/03/07 00:52:17;;;;;;;27.40;15.18;;;;;;;;;;5025855;28;20052;-79
2022/03/07 00:54:43;;;;;;;24.25;14.13;;;;;;;;;;5041421;28;20042;-80
2022/03/07 00:57:09;;;;;;;23.58;13.55;;;;;;;;;;5041743;28;20085;-80
2022/03/07 00:59:35;;;;;;;25.45;13.82;;;;;;;;;;5030676;28;20517;-80
2022/03/07 01:02:01;;;;;;;21.48;13.13;;;;;;;;;;5026266;28;20029;-81
2022/03/07 01:04:27;;;;;;;20.33;12.90;;;;;;;;;;5024211;28;20051;-79
2022/03/07 01:06:53;;;;;;;22.60;13.93;;;;;;;;;;5040864;28;20048;-79
2022/03/07 01:09:19;;;;;;;21.98;13.40;;;;;;;;;;5040374;28;20057;-79
2022/03/07 01:11:45;;;;;;;22.77;13.02;;;;;;;;;;5039663;28;20417;-80
2022/03/07 01:14:11;;;;;;;21.20;13.73;;;;;;;;;;5041535;28;20446;-80
2022/03/07 01:16:37;;;;;;;21.98;13.32;;;;;;;;;;5040883;28;20045;-81
2022/03/07 01:19:03;;;;;;;26.08;13.02;;;;;;;;;;5046777;28;20095;-79
2022/03/07 01:21:29;;;;;;;22.30;12.38;;;;;;;;;;5041811;28;20072;-80
2022/03/07 01:23:55;;;;;;;22.73;12.95;;;;;;;;;;5041823;28;20129;-80
2022/03/07 01:26:21;;;;;;;20.90;12.77;;;;;;;;;;5041858;28;20068;-80
2022/03/07 01:28:47;;;;;;;22.17;12.95;;;;;;;;;;5042048;28;20041;-79
2022/03/07 01:31:13;;;;;;;26.88;13.80;;;;;;;;;;5041370;28;20052;-81
2022/03/07 01:33:39;;;;;;;21.35;12.98;;;;;;;;;;5040557;28;20072;-80
2022/03/07 01:36:05;;;;;;;20.88;12.55;;;;;;;;;;5024682;28;20443;-80
2022/03/07 01:38:31;;;;;;;22.15;12.60;;;;;;;;;;5041715;28;20051;-81
2022/03/07 01:40:57;;;;;;;20.70;13.05;;;;;;;;;;5042591;28;20119;-79
2022/03/07 01:43:23;;;;;;;21.08;12.70;;;;;;;;;;5040634;28;20045;-79
2022/03/07 01:45:49;;;;;;;23.00;13.05;;;;;;;;;;5039292;28;20129;-79
2022/03/07 01:48:15;;;;;;;18.83;12.05;;;;;;;;;;5040403;28;20041;-80
2022/03/07 01:50:41;;;;;;;23.65;13.60;;;;;;;;;;5041365;28;20103;-79
2022/03/07 01:53:07;;;;;;;20.63;12.52;;;;;;;;;;5040867;28;20038;-79
2022/03/07 01:55:33;;;;;;;20.05;12.65;;;;;;;;;;5041068;28;20446;-81
2022/03/07 01:57:59;;;;;;;23.38;13.45;;;;;;;;;;5040842;28;20075;-79
2022/03/07 02:00:26;;;;;;;24.73;12.77;;;;;;;;;;5044884;28;20403;-81
2022/03/07 02:02:53;;;;;;;21.33;12.75;;;;;;;;;;5044348;28;20048;-80
2022/03/07 02:05:19;;;;;;;24.88;13.43;;;;;;;;;;5050126;28;20045;-80
2022/03/07 02:07:45;;;;;;;21.65;13.02;;;;;;;;;;5050053;28;20041;-80
2022/03/07 02:10:11;;;;;;;23.17;12.93;;;;;;;;;;5048795;28;20063;-80
2022/03/07 02:12:37;;;;;;;23.38;13.10;;;;;;;;;;5029463;28;20101;-80
2022/03/07 02:15:03;;;;;;;22.73;13.20;;;;;;;;;;5046341;28;20045;-82
2022/03/07 02:17:29;;;;;;;21.98;13.07;;;;;;;;;;5045295;28;20073;-80
2022/03/07 02:19:55;;;;;;;20.40;12.95;;;;;;;;;;5046162;28;20042;-79
2022/03/07 02:22:22;;;;;;;22.45;13.48;;;;;;;;;;5043877;28;20060;-79
2022/03/07 02:24:48;;;;;;;23.60;13.13;;;;;;;;;;5046050;28;20038;-81
2022/03/07 02:27:18;;;;;;;23.63;13.05;;;;;;;;;;5041984;28;20061;-80
2022/03/07 02:29:44;;;;;;;20.70;12.68;;;;;;;;;;5040093;28;20042;-80
2022/03/07 02:32:10;;;;;;;22.27;13.35;;;;;;;;;;5041079;28;20104;-80
2022/03/07 02:34:36;;;;;;;23.58;13.93;;;;;;;;;;5025938;28;20132;-79
2022/03/07 02:37:02;;;;;;;23.23;13.07;;;;;;;;;;5045165;28;20077;-80
2022/03/07 02:39:28;;;;;;;22.08;13.55;;;;;;;;;;5044818;28;20045;-80
2022/03/07 02:41:55;;;;;;;23.48;12.77;;;;;;;;;;5044964;28;20118;-81
2022/03/07 02:44:21;;;;;;;21.67;13.60;;;;;;;;;;5028554;28;20099;-80
2022/03/07 02:46:47;;;;;;;21.10;13.68;;;;;;;;;;5070054;28;20049;-80
2022/03/07 02:49:13;;;;;;;23.02;14.00;;;;;;;;;;5068330;28;20364;-80
2022/03/07 02:51:39;;;;;;;26.40;13.10;;;;;;;;;;5077978;28;20025;-79
2022/03/07 02:54:05;;;;;;;21.30;12.75;;;;;;;;;;5084914;28;20045;-78
2022/03/07 02:56:31;;;;;;;20.73;13.18;;;;;;;;;;5077993;28;20041;-80
2022/03/07 02:58:57;;;;;;;23.92;13.60;;;;;;;;;;5065583;28;20406;-79
2022/03/07 03:01:23;;;;;;;25.52;14.40;;;;;;;;;;5081666;28;20040;-79
2022/03/07 03:03:49;;;;;;;23.45;13.27;;;;;;;;;;5086222;28;20036;-79
2022/03/07 03:06:15;;;;;;;22.45;13.63;;;;;;;;;;5067747;28;20777;-79
2022/03/07 03:08:41;;;;;;;21.05;13.90;;;;;;;;;;5052673;28;20054;-80
2022/03/07 03:11:08;;;;;;;27.52;14.10;;;;;;;;;;5053627;28;20036;-79
2022/03/07 03:13:34;;;;;;;23.23;13.43;;;;;;;;;;5053521;28;20040;-80
2022/03/07 03:16:00;;;;;;;23.60;14.00;;;;;;;;;;5052069;28;20067;-78
2022/03/07 03:18:25;;;;;;;22.02;13.50;;;;;;;;;;5088947;28;20035;-79
2022/03/07 03:20:52;;;;;;;20.98;12.88;;;;;;;;;;5057376;28;20052;-80
2022/03/07 03:23:18;;;;;;;22.75;13.77;;;;;;;;;;5050217;28;20052;-80
2022/03/07 03:25:44;;;;;;;23.42;13.73;;;;;;;;;;5083830;28;20048;-80
2022/03/07 03:28:10;;;;;;;23.80;13.32;;;;;;;;;;5065961;28;20318;-81
2022/03/07 03:30:36;;;;;;;22.40;13.20;;;;;;;;;;5090075;28;20044;-80
2022/03/07 03:33:02;;;;;;;21.20;13.00;;;;;;;;;;5065166;28;20048;-80
2022/03/07 03:35:28;;;;;;;24.55;14.13;;;;;;;;;;5049228;28;20036;-79
2022/03/07 03:37:54;;;;;;;22.85;13.90;;;;;;;;;;5083144;28;20063;-80
2022/03/07 03:40:20;;;;;;;21.58;13.32;;;;;;;;;;5065765;28;20500;-80
2022/03/07 03:42:46;;;;;;;22.70;13.02;;;;;;;;;;5065985;28;20036;-80
2022/03/07 03:45:13;;;;;;;22.25;13.40;;;;;;;;;;5055831;28;20060;-80
2022/03/07 03:47:39;;;;;;;20.30;13.73;;;;;;;;;;5042118;28;20421;-80
2022/03/07 03:50:06;;;;;;;20.48;12.90;;;;;;;;;;5026269;28;20049;-80
2022/03/07 03:52:32;;;;;;;17.95;11.32;;;;;;;;;;5042958;28;20041;-81
2022/03/07 03:54:58;;;;;;;17.25;10.30;;;;;;;;;;5043545;28;20124;-81
2022/03/07 03:57:24;;;;;;;17.42;10.23;;;;;;;;;;5042435;28;20041;-80
2022/03/07 03:59:50;;;;;;;18.83;9.52;;;;;;;;;;5043805;28;20053;-80
2022/03/07 04:02:16;;;;;;;16.75;9.48;;;;;;;;;;5025252;28;20461;-81
2022/03/07 04:04:42;;;;;;;15.52;9.75;;;;;;;;;;5041951;28;20037;-80
2022/03/07 04:07:08;;;;;;;19.35;10.20;;;;;;;;;;5042435;28;20037;-80
2022/03/07 04:09:34;;;;;;;19.10;9.88;;;;;;;;;;5024414;28;20085;-80
2022/03/07 04:12:00;;;;;;;15.80;9.70;;;;;;;;;;5025142;28;20041;-82
2022/03/07 04:14:26;;;;;;;15.70;9.85;;;;;;;;;;5025039;28;20420;-82
2022/03/07 04:16:53;;;;;;;14.85;9.65;;;;;;;;;;5025100;28;20046;-80
2022/03/07 04:19:18;;;;;;;16.08;9.55;;;;;;;;;;5041265;28;20054;-79
2022/03/07 04:21:45;;;;;;;19.85;9.98;;;;;;;;;;5025310;28;20120;-80
2022/03/07 04:24:11;;;;;;;18.45;9.50;;;;;;;;;;5027985;28;20112;-79
2022/03/07 04:26:37;;;;;;;14.57;9.32;;;;;;;;;;5048042;28;20037;-80
2022/03/07 04:29:07;;;;;;;15.80;9.48;;;;;;;;;;5042416;28;20056;-80
2022/03/07 04:31:33;;;;;;;16.35;9.77;;;;;;;;;;5042042;28;20049;-79
2022/03/07 04:33:59;;;;;;;16.27;9.35;;;;;;;;;;5041848;28;20049;-80
2022/03/07 04:36:25;;;;;;;16.63;10.13;;;;;;;;;;5028964;28;20052;-79
2022/03/07 04:38:51;;;;;;;14.88;9.52;;;;;;;;;;5044567;28;20045;-80
2022/03/07 04:41:17;;;;;;;18.45;9.90;;;;;;;;;;5041855;28;20102;-79
2022/03/07 04:43:43;;;;;;;20.02;10.70;;;;;;;;;;5042907;28;20041;-79
2022/03/07 04:46:09;;;;;;;16.48;10.70;;;;;;;;;;5059031;28;20098;-81
2022/03/07 04:48:36;;;;;;;16.52;10.27;;;;;;;;;;5082662;28;20052;-80
2022/03/07 04:51:02;;;;;;;19.73;11.65;;;;;;;;;;5048527;28;20337;-80
2022/03/07 04:53:28;;;;;;;19.85;11.20;;;;;;;;;;5066032;28;20032;-81
2022/03/07 04:55:54;;;;;;;20.83;11.23;;;;;;;;;;5050052;28;20033;-79
2022/03/07 04:58:19;;;;;;;17.27;10.23;;;;;;;;;;5073087;28;20062;-80
2022/03/07 05:00:45;;;;;;;20.30;11.00;;;;;;;;;;5061542;28;20122;-80
2022/03/07 05:03:11;;;;;;;16.20;10.68;;;;;;;;;;5074858;28;20055;-79
2022/03/07 05:05:37;;;;;;;18.55;10.63;;;;;;;;;;5052503;28;20036;-79
2022/03/07 05:08:04;;;;;;;19.55;10.60;;;;;;;;;;5085048;28;20098;-79
2022/03/07 05:10:30;;;;;;;16.88;10.40;;;;;;;;;;5088971;28;20062;-79
2022/03/07 05:12:56;;;;;;;17.13;10.48;;;;;;;;;;5085923;28;20044;-79
2022/03/07 05:15:22;;;;;;;18.20;10.73;;;;;;;;;;5072623;28;20092;-78
2022/03/07 05:17:51;;;;;;;18.75;10.60;;;;;;;;;;5071343;28;20067;-80
2022/03/07 05:20:17;;;;;;;18.30;10.43;;;;;;;;;;5070438;28;20047;-78
2022/03/07 05:22:43;;;;;;;20.90;10.90;;;;;;;;;;5068142;28;20060;-80
2022/03/07 05:25:09;;;;;;;18.75;10.73;;;;;;;;;;5053689;28;20044;-81
2022/03/07 05:27:35;;;;;;;23.45;10.93;;;;;;;;;;5076504;28;20060;-80
2022/03/07 05:30:02;;;;;;;20.30;10.85;;;;;;;;;;5066884;28;20047;-82
2022/03/07 05:32:28;;;;;;;17.63;10.23;;;;;;;;;;5062334;28;20226;-81
2022/03/07 05:34:54;;;;;;;19.58;10.70;;;;;;;;;;5044862;28;20527;-81
2022/03/07 05:37:20;;;;;;;17.77;10.18;;;;;;;;;;5061117;28;20083;-80
2022/03/07 05:39:46;;;;;;;17.15;10.23;;;;;;;;;;5061280;28;20158;-81
2022/03/07 05:42:12;;;;;;;16.33;10.13;;;;;;;;;;5064338;28;20044;-80
2022/03/07 05:44:38;;;;;;;15.63;9.63;;;;;;;;;;5078886;28;20066;-81
2022/03/07 05:47:04;;;;;;;16.45;10.27;;;;;;;;;;5061811;28;20044;-80
2022/03/07 05:49:30;;;;;;;15.75;9.77;;;;;;;;;;5079727;28;20043;-80
2022/03/07 05:51:56;;;;;;;17.98;9.95;;;;;;;;;;5063277;28;20048;-81
2022/03/07 05:54:22;;;;;;;19.83;10.38;;;;;;;;;;5079873;28;20356;-81
2022/03/07 05:56:48;;;;;;;18.88;9.43;;;;;;;;;;5063189;28;20040;-82
2022/03/07 05:59:14;;;;;;;16.20;9.85;;;;;;;;;;5045414;28;20402;-82
2022/03/07 06:01:40;;;;;;;18.80;9.85;;;;;;;;;;5045876;28;20115;-80
2022/03/07 06:04:06;;;;;;;15.65;10.20;;;;;;;;;;5062909;28;20395;-80
2022/03/07 06:06:32;;;;;;;17.52;9.93;;;;;;;;;;5067096;28;20039;-80
2022/03/07 06:08:58;;;;;;;20.23;10.07;;;;;;;;;;5063236;28;20036;-79
2022/03/07 06:11:24;;;;;;;15.95;8.95;;;;;;;;;;5098178;28;20081;-78
2022/03/07 06:13:50;;;;;;;16.73;9.65;;;;;;;;;;5063720;28;20119;-80
2022/03/07 06:16:19;;;;;;;14.70;9.13;;;;;;;;;;5080042;28;20113;-80
2022/03/07 06:18:45;;;;;;;16.23;9.73;;;;;;;;;;5077761;28;20492;-79
2022/03/07 06:21:11;;;;;;;16.95;9.80;;;;;;;;;;5060178;28;20117;-80
2022/03/07 06:23:37;;;;;;;16.63;10.05;;;;;;;;;;5061745;28;20036;-79
2022/03/07 06:26:06;;;;;;;17.33;9.68;;;;;;;;;;5046099;28;20422;-80
2022/03/07 06:28:32;;;;;;;21.98;10.27;;;;;;;;;;5045109;28;20033;-80
2022/03/07 06:30:59;;;;;;;16.20;10.43;;;;;;;;;;5061192;28;20067;-80
2022/03/07 06:33:25;;;;;;;19.50;10.30;;;;;;;;;;5044023;28;20048;-81
2022/03/07 06:35:51;;;;;;;17.73;10.00;;;;;;;;;;5062327;28;20043;-81
2022/03/07 06:38:18;;;;;;;18.67;9.60;;;;;;;;;;5062188;28;20079;-81
2022/03/07 06:40:44;;;;;;;16.45;9.80;;;;;;;;;;5045143;28;20045;-82
2022/03/07 06:43:10;;;;;;;18.70;10.23;;;;;;;;;;5044308;28;20047;-80
2022/03/07 06:45:36;;;;;;;16.92;9.57;;;;;;;;;;5046647;28;20161;-78
2022/03/07 06:48:02;;;;;;;16.60;9.82;;;;;;;;;;5085317;28;20063;-79
2022/03/07 06:50:28;;;;;;;16.38;9.15;;;;;;;;;;5050298;28;20036;-79
2022/03/07 06:52:54;;;;;;;16.60;9.98;;;;;;;;;;5062914;28;20032;-80
2022/03/07 06:55:20;;;;;;;15.40;9.18;;;;;;;;;;5062409;28;20064;-80
2022/03/07 06:57:46;;;;;;;17.98;10.13;;;;;;;;;;5061638;28;20070;-80
2022/03/07 07:00:13;;;;;;;19.90;9.93;;;;;;;;;;5043052;28;20076;-79
2022/03/07 07:02:39;;;;;;;15.25;9.20;;;;;;;;;;5051192;28;20033;-78
2022/03/07 07:05:05;;;;;;;22.92;10.07;;;;;;;;;;5069658;28;20052;-79
2022/03/07 07:07:31;;;;;;;20.27;10.50;;;;;;;;;;5062173;28;20123;-80
2022/03/07 07:09:57;;;;;;;17.60;9.48;;;;;;;;;;5046282;28;20075;-80
2022/03/07 07:12:23;;;;;;;17.50;10.25;;;;;;;;;;5044505;28;20329;-79
2022/03/07 07:14:49;;;;;;;20.80;11.15;;;;;;;;;;5061386;28;20455;-80
2022/03/07 07:17:16;;;;;;;17.30;10.40;;;;;;;;;;5045646;28;20074;-80
2022/03/07 07:19:42;;;;;;;21.08;10.98;;;;;;;;;;5062226;28;20064;-80
2022/03/07 07:22:08;;;;;;;22.25;10.38;;;;;;;;;;5049591;28;20040;-81
2022/03/07 07:24:34;;;;;;;18.58;10.90;;;;;;;;;;5048626;28;20043;-81
2022/03/07 07:27:00;;;;;;;21.98;11.05;;;;;;;;;;5064045;28;20052;-81
2022/03/07 07:29:26;;;;;;;18.92;10.35;;;;;;;;;;5064291;28;20078;-81
2022/03/07 07:31:52;;;;;;;18.77;10.52;;;;;;;;;;5065427;28;20550;-79
2022/03/07 07:34:18;;;;;;;17.13;10.40;;;;;;;;;;5047975;28;20100;-80
2022/03/07 07:36:44;;;;;;;15.52;9.98;;;;;;;;;;5070854;28;20040;-81
2022/03/07 07:39:10;;;;;;;13.68;9.20;;;;;;;;;;5083422;28;20092;-79
2022/03/07 07:41:36;;;;;;;15.95;8.88;;;;;;;;;;5066747;28;20040;-79
2022/03/07 07:44:02;;;;;;;14.98;8.98;;;;;;;;;;5099041;28;20051;-79
2022/03/07 07:46:28;;;;;;;18.27;9.10;;;;;;;;;;5057070;28;20461;-79
2022/03/07 07:48:54;;;;;;;15.10;9.15;;;;;;;;;;5039260;28;20107;-79
2022/03/07 07:51:20;;;;;;;20.40;9.13;;;;;;;;;;5040547;28;20072;-79
2022/03/07 07:53:46;;;;;;;17.90;8.80;;;;;;;;;;5025957;28;20037;-79
2022/03/07 07:56:12;;;;;;;15.95;8.35;;;;;;;;;;5041219;28;20127;-79
2022/03/07 07:58:39;;;;;;;14.13;7.95;;;;;;;;;;5024557;28;20042;-78
2022/03/07 08:01:05;;;;;;;14.43;7.30;;;;;;;;;;5041699;28;20033;-79
2022/03/07 08:03:31;;;;;;;9.60;6.25;;;;;;;;;;5041954;28;20060;-80
2022/03/07 08:05:57;;;;;;;12.70;6.30;;;;;;;;;;5041340;28;20053;-80
2022/03/07 08:08:23;;;;;;;9.85;5.75;;;;;;;;;;5024624;28;20039;-81
2022/03/07 08:10:49;;;;;;;16.55;6.57;;;;;;;;;;5041987;28;20116;-80
2022/03/07 08:13:15;;;;;;;13.65;5.50;;;;;;;;;;5041063;28;20037;-81
2022/03/07 08:15:41;;;;;;;9.85;5.75;;;;;;;;;;5040956;28;20120;-81
2022/03/07 08:18:07;;;;;;;12.38;6.18;;;;;;;;;;5044135;28;20064;-81
2022/03/07 08:20:33;;;;;;;9.85;4.85;;;;;;;;;;5040455;28;20116;-81
2022/03/07 08:22:59;;;;;;;8.55;4.68;;;;;;;;;;5040885;28;20041;-80
2022/03/07 08:25:25;;;;;;;9.02;4.40;;;;;;;;;;5041131;28;20065;-81
2022/03/07 08:27:52;;;;;;;8.07;4.40;;;;;;;;;;5023779;28;20450;-80
2022/03/07 08:30:18;;;;;;;8.98;4.82;;;;;;;;;;5040841;28;20110;-81
2022/03/07 08:32:44;;;;;;;8.85;4.55;;;;;;;;;;5040373;28;20124;-81
2022/03/07 08:35:13;;;;;;;12.45;5.20;;;;;;;;;;5024584;28;20342;-82
2022/03/07 08:37:39;;;;;;;7.88;4.60;;;;;;;;;;5048456;28;20072;-79
2022/03/07 08:40:06;;;;;;;8.00;4.85;;;;;;;;;;5033556;28;20173;-79
2022/03/07 08:42:32;;;;;;;9.05;5.20;;;;;;;;;;5030740;28;20075;-81
2022/03/07 08:44:58;;;;;;;10.52;4.88;;;;;;;;;;5024764;28;20102;-81
2022/03/07 08:47:24;;;;;;;7.55;4.57;;;;;;;;;;5024351;28;20370;-81
2022/03/07 08:49:50;;;;;;;10.50;4.68;;;;;;;;;;5041103;28;20037;-81
2022/03/07 08:52:16;;;;;;;7.63;4.57;;;;;;;;;;5040599;28;20049;-81
2022/03/07 08:54:43;;;;;;;8.75;5.35;;;;;;;;;;5024067;28;20073;-81
2022/03/07 08:57:09;;;;;;;7.38;4.07;;;;;;;;;;5040535;28;20052;-81
2022/03/07 08:59:35;;;;;;;7.93;4.60;;;;;;;;;;5046386;28;20045;-80
2022/03/07 09:02:02;;;;;;;8.55;4.38;;;;;;;;;;5042585;28;20038;-81
2022/03/07 09:04:28;;;;;;;9.70;5.20;;;;;;;;;;5045615;28;20113;-80
2022/03/07 09:06:54;;;;;;;8.20;4.65;;;;;;;;;;5031182;28;20079;-79
2022/03/07 09:09:20;;;;;;;7.88;4.40;;;;;;;;;;5043101;28;20042;-80
2022/03/07 09:11:47;;;;;;;6.68;4.00;;;;;;;;;;5042690;28;20055;-81
2022/03/07 09:14:13;;;;;;;7.40;4.22;;;;;;;;;;5042319;28;20041;-80
2022/03/07 09:16:39;;;;;;;7.10;4.20;;;;;;;;;;5042777;28;20144;-80
2022/03/07 09:19:05;;;;;;;7.30;4.53;;;;;;;;;;5042973;28;20155;-80
2022/03/07 09:21:32;;;;;;;7.68;4.55;;;;;;;;;;5043676;28;20520;-79
2022/03/07 09:23:58;;;;;;;9.68;4.65;;;;;;;;;;5034627;28;20029;-81
2022/03/07 09:26:24;;;;;;;7.40;4.20;;;;;;;;;;5057083;28;20069;-80
2022/03/07 09:28:50;;;;;;;6.85;4.00;;;;;;;;;;5032227;28;20048;-81
2022/03/07 09:31:16;;;;;;;10.52;4.82;;;;;;;;;;5042058;28;20540;-80
2022/03/07 09:33:42;;;;;;;9.45;5.22;;;;;;;;;;5024393;28;20100;-79
2022/03/07 09:36:08;;;;;;;10.15;4.75;;;;;;;;;;5023777;28;20057;-81
2022/03/07 09:38:36;;;;;;;9.13;4.65;;;;;;;;;;5023966;28;20037;-80
2022/03/07 09:41:02;;;;;;;10.15;4.70;;;;;;;;;;5040135;28;20508;-80
2022/03/07 09:43:28;;;;;;;10.15;4.68;;;;;;;;;;5025931;28;20037;-80
2022/03/07 09:45:54;;;;;;;7.30;4.60;;;;;;;;;;5025686;28;20057;-81
2022/03/07 09:48:21;;;;;;;8.90;4.70;;;;;;;;;;5042469;28;20115;-82
2022/03/07 09:50:48;;;;;;;8.32;5.20;;;;;;;;;;5041747;28;20037;-83
2022/03/07 09:53:13;;;;;;;9.82;5.00;;;;;;;;;;5024587;28;20122;-82
2022/03/07 09:55:40;;;;;;;10.38;4.82;;;;;;;;;;5040993;28;20045;-82
2022/03/07 09:58:06;;;;;;;8.30;4.60;;;;;;;;;;5041279;28;20428;-81
2022/03/07 10:00:33;;;;;;;7.70;4.72;;;;;;;;;;5025134;28;20100;-82
2022/03/07 10:03:02;;;;;;;7.32;4.32;;;;;;;;;;5041283;28;20104;-81
2022/03/07 10:05:29;;;;;;;8.95;4.63;;;;;;;;;;5028505;28;20090;-80
2022/03/07 10:07:55;;;;;;;7.15;4.22;;;;;;;;;;5022813;28;20112;-81
2022/03/07 10:10:21;;;;;;;8.30;4.28;;;;;;;;;;5023667;28;20045;-81
2022/03/07 10:12:50;;;;;;;11.00;4.25;;;;;;;;;;5023344;28;20044;-82
2022/03/07 10:15:17;;;;;;;9.45;5.13;;;;;;;;;;5040824;28;20072;-82
2022/03/07 10:17:47;;;;;;;8.98;4.55;;;;;;;;;;5040298;28;20045;-82
2022/03/07 10:20:13;;;;;;;7.80;4.13;;;;;;;;;;5023683;28;20428;-81
2022/03/07 10:22:46;;;;;;;8.73;4.13;;;;;;;;;;5023036;28;20037;-81
2022/03/07 10:25:12;;;;;;;7.90;4.18;;;;;;;;;;5022712;28;20045;-81
2022/03/07 10:27:39;;;;;;;10.30;3.85;;;;;;;;;;5022632;28;20048;-81
2022/03/07 10:30:11;;;;;;;7.07;3.90;;;;;;;;;;5022873;28;20129;-81
2022/03/07 10:32:37;;;;;;;8.32;3.90;;;;;;;;;;5049523;28;20037;-82
2022/03/07 10:35:03;;;;;;;7.38;4.38;;;;;;;;;;5053639;28;20041;-82
2022/03/07 10:37:36;;;;;;;6.82;3.80;;;;;;;;;;5038420;28;20048;-82
2022/03/07 10:40:02;;;;;;;10.50;3.85;;;;;;;;;;5055138;28;20037;-80
2022/03/07 10:42:28;;;;;;;8.82;4.22;;;;;;;;;;5042207;28;20128;-80
2022/03/07 10:45:01;;;;;;;13.70;4.55;;;;;;;;;;5046366;28;20125;-82
2022/03/07 10:47:29;;;;;;;7.53;4.13;;;;;;;;;;5062815;28;20036;-81
2022/03/07 10:49:55;;;;;;;7.60;4.05;;;;;;;;;;5067879;28;20040;-80
2022/03/07 10:52:22;;;;;;;8.07;4.38;;;;;;;;;;5073466;28;20041;-80
2022/03/07 10:54:49;;;;;;;6.80;4.10;;;;;;;;;;5069168;28;20048;-82
2022/03/07 10:57:16;;;;;;;9.48;3.97;;;;;;;;;;5051035;28;20048;-82
2022/03/07 10:59:42;;;;;;;6.00;3.80;;;;;;;;;;5065486;28;20094;-81
2022/03/07 11:02:14;;;;;;;9.15;4.28;;;;;;;;;;5049438;28;20040;-82
2022/03/07 11:04:40;;;;;;;6.63;3.60;;;;;;;;;;5066216;28;20041;-79
2022/03/07 11:07:06;;;;;;;8.70;4.25;;;;;;;;;;5048828;28;20040;-83
2022/03/07 11:09:32;;;;;;;6.93;4.00;;;;;;;;;;5066665;28;20040;-80
2022/03/07 11:11:58;;;;;;;7.05;3.92;;;;;;;;;;5051449;28;20044;-80
2022/03/07 11:14:25;;;;;;;7.80;4.38;;;;;;;;;;5054149;28;20036;-81
2022/03/07 11:16:51;;;;;;;6.80;3.83;;;;;;;;;;5083707;28;20191;-81
2022/03/07 11:19:18;;;;;;;5.55;3.65;;;;;;;;;;5048542;28;20060;-82
2022/03/07 11:21:45;;;;;;;8.93;4.10;;;;;;;;;;5049469;28;20036;-83
2022/03/07 11:24:11;;;;;;;9.15;3.72;;;;;;;;;;5065554;28;20131;-83
2022/03/07 11:26:41;;;;;;;5.35;3.17;;;;;;;;;;5087761;28;20029;-81
2022/03/07 11:29:08;;;;;;;6.82;3.60;;;;;;;;;;5049303;28;20375;-83
2022/03/07 11:31:34;;;;;;;11.88;3.80;;;;;;;;;;5064833;28;20044;-83
2022/03/07 11:34:05;;;;;;;6.22;3.65;;;;;;;;;;5050836;28;20040;-81
2022/03/07 11:36:31;;;;;;;6.85;3.50;;;;;;;;;;5067879;28;20050;-80
2022/03/07 11:38:59;;;;;;;8.80;3.97;;;;;;;;;;5068168;28;20051;-80
2022/03/07 11:41:26;;;;;;;5.80;3.90;;;;;;;;;;5051006;28;20051;-80
2022/03/07 11:43:56;;;;;;;7.13;3.90;;;;;;;;;;5067472;28;20452;-81
2022/03/07 11:46:23;;;;;;;8.40;4.25;;;;;;;;;;5031995;28;20105;-81
2022/03/07 11:48:49;;;;;;;7.13;3.67;;;;;;;;;;5028223;28;20510;-81
2022/03/07 11:51:16;;;;;;;6.00;4.10;;;;;;;;;;5046127;28;20446;-81
2022/03/07 11:53:45;;;;;;;6.57;3.90;;;;;;;;;;5045720;28;20041;-82
2022/03/07 11:56:15;;;;;;;6.47;3.60;;;;;;;;;;5051338;28;20041;-79
2022/03/07 11:58:48;;;;;;;8.35;3.88;;;;;;;;;;5039118;28;20038;-80
2022/03/07 12:01:14;;;;;;;8.57;3.78;;;;;;;;;;5056448;28;20037;-80
2022/03/07 12:03:40;;;;;;;8.63;4.22;;;;;;;;;;5040303;28;20022;-81
2022/03/07 12:06:09;;;;;;;10.43;3.88;;;;;;;;;;5042077;28;20034;-80
2022/03/07 12:08:42;;;;;;;8.50;4.13;;;;;;;;;;5040565;28;20042;-79
2022/03/07 12:11:09;;;;;;;8.18;3.92;;;;;;;;;;5040959;28;20045;-81
2022/03/07 12:13:44;;;;;;;7.72;3.92;;;;;;;;;;5034808;28;20037;-81
2022/03/07 12:16:12;;;;;;;5.82;3.42;;;;;;;;;;5035429;28;20048;-82
2022/03/07 12:18:38;;;;;;;7.57;3.95;;;;;;;;;;5036922;28;20037;-81
2022/03/07 12:21:14;;;;;;;5.88;3.67;;;;;;;;;;5048873;28;20040;-83
2022/03/07 12:23:41;;;;;;;6.43;3.40;;;;;;;;;;5055625;28;20049;-81
2022/03/07 12:26:08;;;;;;;9.18;4.13;;;;;;;;;;5029691;28;20472;-81
2022/03/07 12:28:35;;;;;;;7.63;3.53;;;;;;;;;;5031639;28;20045;-81
2022/03/07 12:31:01;;;;;;;10.73;3.83;;;;;;;;;;5029138;28;20048;-84
2022/03/07 12:33:27;;;;;;;6.63;3.85;;;;;;;;;;5047779;28;20045;-83
2022/03/07 12:36:03;;;;;;;8.75;3.55;;;;;;;;;;5031372;28;20060;-83
2022/03/07 12:38:30;;;;;;;7.60;3.83;;;;;;;;;;5037485;28;20041;-82
2022/03/07 12:40:58;;;;;;;8.18;3.92;;;;;;;;;;5037327;28;20222;-82
2022/03/07 12:43:24;;;;;;;8.13;4.03;;;;;;;;;;5034395;28;20041;-84
2022/03/07 12:45:50;;;;;;;6.28;3.65;;;;;;;;;;5042850;28;20056;-81
2022/03/07 12:48:16;;;;;;;7.50;3.88;;;;;;;;;;5059754;28;20064;-84
2022/03/07 12:50:42;;;;;;;9.73;3.78;;;;;;;;;;5042381;28;20037;-82
2022/03/07 12:53:12;;;;;;;6.68;3.63;;;;;;;;;;5035751;28;20077;-82
2022/03/07 12:55:38;;;;;;;8.75;3.80;;;;;;;;;;5043333;28;20071;-84
2022/03/07 12:58:04;;;;;;;6.43;3.78;;;;;;;;;;5041495;28;20053;-82
2022/03/07 13:00:32;;;;;;;8.18;3.50;;;;;;;;;;5028230;28;20047;-80
2022/03/07 13:02:58;;;;;;;7.57;3.85;;;;;;;;;;5028511;28;20457;-81
2022/03/07 13:05:26;;;;;;;5.00;3.30;;;;;;;;;;5044772;28;20117;-81
2022/03/07 13:07:55;;;;;;;7.28;3.65;;;;;;;;;;5045392;28;20037;-81
2022/03/07 13:10:23;;;;;;;6.43;3.67;;;;;;;;;;5045299;28;20045;-81
2022/03/07 13:12:49;;;;;;;6.57;3.85;;;;;;;;;;5029099;28;20048;-81
2022/03/07 13:15:15;;;;;;;9.45;4.00;;;;;;;;;;5026961;28;20077;-82
2022/03/07 13:17:41;;;;;;;9.90;4.47;;;;;;;;;;5043361;28;20041;-81
2022/03/07 13:20:10;;;;;;;7.78;3.90;;;;;;;;;;5026636;28;20097;-81
2022/03/07 13:22:36;;;;;;;5.68;3.55;;;;;;;;;;5029160;28;20045;-81
2022/03/07 13:25:04;;;;;;;8.93;4.07;;;;;;;;;;5030965;28;20041;-81
2022/03/07 13:27:30;;;;;;;7.07;4.13;;;;;;;;;;5027825;28;20046;-82
2022/03/07 13:30:22;;;;;;;7.13;4.10;;;;;;;;;;5028056;28;20048;-83
2022/03/07 13:32:48;;;;;;;9.15;4.20;;;;;;;;;;5040773;28;20085;-83
2022/03/07 13:35:22;;;;;;;6.57;3.67;;;;;;;;;;5025637;28;20373;-82
2022/03/07 13:37:48;;;;;;;6.00;3.88;;;;;;;;;;5042906;28;20041;-83
2022/03/07 13:40:16;;;;;;;7.10;3.78;;;;;;;;;;5025831;28;20037;-81
2022/03/07 13:42:43;;;;;;;6.40;4.05;;;;;;;;;;5046907;28;20033;-82
2022/03/07 13:45:10;;;;;;;8.50;4.47;;;;;;;;;;5039218;28;20063;-81
2022/03/07 13:47:36;;;;;;;6.88;4.30;;;;;;;;;;5059213;28;20037;-83
2022/03/07 13:50:13;;;;;;;9.15;4.57;;;;;;;;;;5069841;28;20036;-81
2022/03/07 13:52:43;;;;;;;7.68;4.32;;;;;;;;;;5069056;28;20036;-81
2022/03/07 13:55:10;;;;;;;7.90;4.65;;;;;;;;;;5052013;28;20116;-81
2022/03/07 13:57:40;;;;;;;6.30;4.00;;;;;;;;;;5052119;28;20056;-80
2022/03/07 14:00:09;;;;;;;8.13;4.22;;;;;;;;;;5068889;28;20068;-81
2022/03/07 14:02:39;;;;;;;8.98;4.30;;;;;;;;;;5086288;28;20406;-80
2022/03/07 14:05:05;;;;;;;8.07;4.15;;;;;;;;;;5052910;28;20578;-80
2022/03/07 14:07:31;;;;;;;12.00;4.32;;;;;;;;;;5055746;28;20047;-80
2022/03/07 14:09:58;;;;;;;7.18;4.40;;;;;;;;;;5052974;28;20052;-81
2022/03/07 14:12:25;;;;;;;8.15;3.75;;;;;;;;;;5050801;28;20044;-82
2022/03/07 14:14:58;;;;;;;7.57;4.53;;;;;;;;;;5064270;28;20368;-81
2022/03/07 14:17:24;;;;;;;8.15;4.18;;;;;;;;;;5047536;28;20036;-82
2022/03/07 14:19:49;;;;;;;7.70;4.22;;;;;;;;;;5046207;28;20047;-81
2022/03/07 14:22:19;;;;;;;9.68;4.43;;;;;;;;;;5064368;28;20048;-84
2022/03/07 14:24:48;;;;;;;5.78;3.97;;;;;;;;;;5048427;28;20036;-82